Time;durP1;ratioP1;P1;durP2;ratioP2;P2;SDS_P1;SDS_P2;PMS_P1;PMS_P2;Temp;Humidity;BMP_temperature;BMP_pressure;BME280_temperature;BME280_humidity;BME280_pressure;Samples;Min_cycle;Max_cycle;Signal;HPM_P1;HPM_P2
2022/07/31 00:00:14;;;;;;;4.78;2.85;;;;;;;22.34;93.12;101721.81;5108176;27;20122;-59
2022/07/31 00:02:40;;;;;;;6.00;2.58;;;;;;;22.29;93.39;101723.25;5091587;27;20523;-60
2022/07/31 00:05:07;;;;;;;5.25;2.63;;;;;;;22.24;94.44;101717.69;5105609;27;20051;-59
2022/07/31 00:07:33;;;;;;;5.32;2.95;;;;;;;22.21;95.43;101718.06;5118493;27;20054;-61
2022/07/31 00:10:00;;;;;;;7.88;2.95;;;;;;;22.19;96.21;101721.94;5107603;27;20046;-61
2022/07/31 00:12:26;;;;;;;4.85;2.67;;;;;;;22.15;97.22;101718.03;5102138;27;20039;-59
2022/07/31 00:14:53;;;;;;;5.30;2.75;;;;;;;22.04;98.90;101722.94;5092796;27;20050;-60
2022/07/31 00:17:19;;;;;;;7.63;2.92;;;;;;;21.99;99.87;101719.22;5110214;27;20051;-59
2022/07/31 00:19:46;;;;;;;6.70;2.72;;;;;;;21.91;100.00;101713.06;5111644;27;20526;-59
2022/07/31 00:22:12;;;;;;;4.38;2.85;;;;;;;21.86;100.00;101709.34;5102907;27;20055;-59
2022/07/31 00:24:38;;;;;;;6.35;2.72;;;;;;;21.77;100.00;101713.19;5107765;27;20075;-59
2022/07/31 00:27:05;;;;;;;5.38;2.78;;;;;;;21.73;100.00;101704.75;5088405;27;20051;-60
2022/07/31 00:29:32;;;;;;;5.28;3.00;;;;;;;21.69;100.00;101704.31;5102171;27;20061;-58
2022/07/31 00:31:58;;;;;;;4.43;2.83;;;;;;;21.65;100.00;101705.75;5093695;27;20050;-60
2022/07/31 00:34:24;;;;;;;4.03;2.97;;;;;;;21.64;100.00;101700.59;5109159;27;20086;-60
2022/07/31 00:36:51;;;;;;;4.93;2.78;;;;;;;21.60;100.00;101697.53;5115490;27;20057;-61
2022/07/31 00:39:17;;;;;;;5.97;2.83;;;;;;;21.53;100.00;101688.66;5104055;27;20054;-58
2022/07/31 00:41:44;;;;;;;6.18;2.78;;;;;;;21.58;100.00;101690.72;5104312;27;20055;-58
2022/07/31 00:44:12;;;;;;;4.97;2.80;;;;;;;21.53;100.00;101689.47;5100621;27;20100;-59
2022/07/31 00:46:40;;;;;;;4.95;2.45;;;;;;;21.52;100.00;101692.31;5108501;27;20144;-58
2022/07/31 00:49:11;;;;;;;6.38;2.65;;;;;;;21.50;100.00;101686.38;5101613;28;20047;-59
2022/07/31 00:51:38;;;;;;;3.22;2.58;;;;;;;21.48;100.00;101694.59;5106187;28;20047;-60
2022/07/31 00:54:09;;;;;;;7.55;3.10;;;;;;;21.44;100.00;101681.81;5100353;27;20723;-60
2022/07/31 00:56:42;;;;;;;7.45;3.00;;;;;;;21.40;100.00;101686.69;5110753;27;20051;-59
2022/07/31 00:59:08;;;;;;;4.25;2.80;;;;;;;21.35;100.00;101688.31;5102721;28;20047;-59
2022/07/31 01:01:35;;;;;;;5.20;2.65;;;;;;;21.30;100.00;101686.22;5107776;28;20054;-58
2022/07/31 01:04:01;;;;;;;7.55;2.85;;;;;;;21.25;100.00;101692.16;5111702;28;20054;-58
2022/07/31 01:06:28;;;;;;;5.30;3.13;;;;;;;21.22;100.00;101687.22;5093994;28;20059;-59
2022/07/31 01:08:54;;;;;;;6.00;2.92;;;;;;;21.19;100.00;101684.09;5099383;28;20051;-59
2022/07/31 01:11:32;;;;;;;5.78;3.22;;;;;;;21.16;100.00;101677.31;5110614;27;20047;-59
2022/07/31 01:14:01;;;;;;;4.05;2.90;;;;;;;21.11;100.00;101669.91;5098564;28;20051;-58
2022/07/31 01:16:34;;;;;;;7.60;3.00;;;;;;;21.10;100.00;101681.59;5107855;28;20056;-60
2022/07/31 01:19:09;;;;;;;10.07;3.40;;;;;;;21.06;100.00;101682.19;5094775;28;20422;-59
2022/07/31 01:21:42;;;;;;;6.18;3.50;;;;;;;21.02;100.00;101687.09;5104686;28;20043;-59
2022/07/31 01:24:36;;;;;;;6.50;3.05;;;;;;;21.03;100.00;101679.91;5086517;28;20492;-60
2022/07/31 01:27:24;;;;;;;4.45;3.20;;;;;;;21.00;100.00;101678.47;5110017;27;20499;-59
2022/07/31 01:29:55;;;;;;;5.78;3.45;;;;;;;20.97;100.00;101675.34;5094256;28;20047;-60
2022/07/31 01:32:31;;;;;;;7.22;2.90;;;;;;;20.94;100.00;101680.06;5097758;28;20043;-59
2022/07/31 01:35:04;;;;;;;5.90;3.50;;;;;;;20.90;100.00;101678.78;5106603;28;20051;-59
2022/07/31 01:37:35;;;;;;;5.75;3.58;;;;;;;20.86;100.00;101676.72;5088750;28;20056;-60
2022/07/31 01:40:12;;;;;;;6.50;3.78;;;;;;;20.82;100.00;101672.78;5098072;28;20048;-59
2022/07/31 01:42:43;;;;;;;5.47;3.30;;;;;;;20.79;100.00;101666.00;5093260;28;20050;-58
2022/07/31 01:45:13;;;;;;;4.68;2.90;;;;;;;20.78;100.00;101666.19;5119767;27;20047;-59
2022/07/31 01:47:42;;;;;;;4.40;2.80;;;;;;;20.73;100.00;101664.09;5094344;28;20052;-60
2022/07/31 01:50:10;;;;;;;6.00;3.05;;;;;;;20.67;100.00;101659.53;5102552;28;20078;-59
2022/07/31 01:52:59;;;;;;;7.22;3.25;;;;;;;20.68;100.00;101655.84;5090720;27;20055;-59
2022/07/31 01:55:27;;;;;;;5.15;2.92;;;;;;;20.70;100.00;101645.84;5115445;27;20067;-59
2022/07/31 01:57:55;;;;;;;5.65;3.47;;;;;;;20.73;100.00;101643.59;5104966;27;20248;-59
2022/07/31 02:00:22;;;;;;;4.30;3.20;;;;;;;20.74;100.00;101639.91;5103987;27;20077;-58
2022/07/31 02:03:00;;;;;;;4.72;2.67;;;;;;;20.74;100.00;101647.09;5104381;27;20078;-60
2022/07/31 02:05:36;;;;;;;7.35;3.10;;;;;;;20.67;100.00;101643.56;5100696;27;20120;-59
2022/07/31 02:08:05;;;;;;;8.52;3.20;;;;;;;20.61;100.00;101641.66;5109274;27;20130;-59
2022/07/31 02:10:32;;;;;;;6.15;3.13;;;;;;;20.60;100.00;101645.31;5099800;27;20051;-59
2022/07/31 02:13:01;;;;;;;7.32;3.00;;;;;;;20.54;100.00;101639.75;5102046;27;20530;-59
2022/07/31 02:15:29;;;;;;;4.43;2.85;;;;;;;20.47;100.00;101638.84;5113179;27;20062;-60
2022/07/31 02:17:56;;;;;;;;;;;;;;;20.45;100.00;101632.06;5099948;27;20055;-59
2022/07/31 02:20:24;;;;;;;7.30;3.20;;;;;;;20.44;100.00;101641.06;5107516;27;20451;-58
2022/07/31 02:22:50;;;;;;;4.25;2.78;;;;;;;20.40;100.00;101642.47;5105810;27;20047;-58
2022/07/31 02:25:17;;;;;;;4.38;2.85;;;;;;;20.40;100.00;101642.47;5112166;27;20055;-57
2022/07/31 02:27:44;;;;;;;5.40;3.30;;;;;;;20.36;100.00;101634.03;5097944;27;20078;-59
2022/07/31 02:30:26;;;;;;;5.55;3.17;;;;;;;20.34;100.00;101634.22;5104625;27;20058;-59
2022/07/31 02:33:09;;;;;;;7.47;3.22;;;;;;;20.34;100.00;101636.06;5112892;27;20051;-56
2022/07/31 02:35:38;;;;;;;4.57;3.03;;;;;;;20.33;100.00;101639.75;5110817;27;20047;-58
2022/07/31 02:38:13;;;;;;;6.07;3.20;;;;;;;20.32;100.00;101638.09;5111136;27;20047;-60
2022/07/31 02:40:52;;;;;;;3.97;3.00;;;;;;;20.28;100.00;101636.84;5094658;27;20051;-60
2022/07/31 02:43:20;;;;;;;6.45;3.15;;;;;;;20.31;100.00;101644.47;5108618;27;20051;-59
2022/07/31 02:45:47;;;;;;;5.40;3.08;;;;;;;20.30;100.00;101634.81;5103134;27;20062;-60
2022/07/31 02:48:13;;;;;;;5.00;3.28;;;;;;;20.34;100.00;101630.72;5119030;27;20051;-59
2022/07/31 02:50:41;;;;;;;4.53;3.20;;;;;;;20.34;100.00;101636.88;5097465;27;20054;-60
2022/07/31 02:53:08;;;;;;;4.90;3.15;;;;;;;20.38;100.00;101636.50;5106049;27;20051;-58
2022/07/31 02:55:35;;;;;;;7.82;3.10;;;;;;;20.37;100.00;101627.69;5109255;27;20050;-61
2022/07/31 02:58:02;;;;;;;6.40;2.80;;;;;;;20.39;100.00;101632.84;5097759;27;20048;-60
2022/07/31 03:00:29;;;;;;;5.55;3.05;;;;;;;20.38;100.00;101624.00;5105129;27;20126;-60
2022/07/31 03:02:56;;;;;;;7.25;2.85;;;;;;;20.35;100.00;101619.91;5093884;27;20058;-60
2022/07/31 03:05:23;;;;;;;6.28;3.42;;;;;;;20.34;100.00;101617.41;5118194;27;20071;-60
2022/07/31 03:07:50;;;;;;;10.07;3.45;;;;;;;20.32;100.00;101617.59;5112923;27;20519;-61
2022/07/31 03:10:16;;;;;;;7.82;3.13;;;;;;;20.33;100.00;101619.25;5092445;27;20055;-59
2022/07/31 03:12:46;;;;;;;7.75;3.40;;;;;;;20.36;100.00;101620.72;5101982;27;20052;-60
2022/07/31 03:15:17;;;;;;;6.05;2.90;;;;;;;20.33;100.00;101605.94;5101720;27;20089;-59
2022/07/31 03:17:44;;;;;;;7.18;3.30;;;;;;;20.35;100.00;101611.91;5089969;27;20043;-60
2022/07/31 03:20:12;;;;;;;;;;;;;;;20.41;100.00;101615.63;5098307;27;20111;-60
2022/07/31 03:22:39;;;;;;;6.57;2.70;;;;;;;20.46;100.00;101615.06;5098383;27;19924;-60
2022/07/31 03:25:06;;;;;;;4.88;3.22;;;;;;;20.40;100.00;101603.31;5104771;27;20756;-64
2022/07/31 03:27:33;;;;;;;7.73;3.10;;;;;;;20.38;100.00;101599.22;5096565;27;20051;-59
2022/07/31 03:30:00;;;;;;;6.25;3.22;;;;;;;20.34;100.00;101594.25;5105200;27;20494;-58
2022/07/31 03:32:26;;;;;;;5.25;2.85;;;;;;;20.38;100.00;101589.38;5098280;27;20046;-59
2022/07/31 03:34:53;;;;;;;4.43;3.00;;;;;;;20.41;100.00;101596.19;5117500;27;20051;-61
2022/07/31 03:37:19;;;;;;;6.78;2.97;;;;;;;20.38;100.00;101596.53;5101839;27;20089;-59
2022/07/31 03:39:46;;;;;;;4.22;3.13;;;;;;;20.35;100.00;101592.44;5112433;27;20048;-60
2022/07/31 03:42:13;;;;;;;6.65;3.28;;;;;;;20.33;100.00;101591.81;5100321;28;20039;-59
2022/07/31 03:44:46;;;;;;;4.78;2.92;;;;;;;20.39;100.00;101596.34;5100012;27;20500;-59
2022/07/31 03:47:14;;;;;;;6.32;2.80;;;;;;;20.42;100.00;101597.81;5103154;27;20059;-60
2022/07/31 03:49:42;;;;;;;7.38;3.55;;;;;;;20.46;100.00;101597.22;5099182;27;20147;-59
2022/07/31 03:52:09;;;;;;;6.10;3.70;;;;;;;20.48;100.00;101592.53;5096887;27;20051;-59
2022/07/31 03:54:38;;;;;;;6.63;3.90;;;;;;;20.52;100.00;101593.81;5096158;27;20071;-60
2022/07/31 03:57:06;;;;;;;6.07;3.97;;;;;;;20.53;100.00;101597.28;5115839;27;20051;-62
2022/07/31 03:59:33;;;;;;;;;;;;;;;20.53;100.00;101586.63;5101755;27;20059;-59
2022/07/31 04:02:06;;;;;;;5.60;4.10;;;;;;;20.54;100.00;101590.91;5093371;27;19923;-58
2022/07/31 04:04:36;;;;;;;7.97;4.57;;;;;;;20.56;100.00;101591.56;5098238;28;20871;-60
2022/07/31 04:07:04;;;;;;;9.48;5.63;;;;;;;20.52;100.00;101580.47;5089414;27;20051;-58
2022/07/31 04:09:31;;;;;;;6.97;4.95;;;;;;;20.55;100.00;101588.06;5103446;27;20051;-60
2022/07/31 04:11:57;;;;;;;7.18;5.72;;;;;;;20.52;100.00;101588.47;5115784;27;20062;-60
2022/07/31 04:14:24;;;;;;;9.55;6.32;;;;;;;20.51;100.00;101594.81;5112333;27;20446;-60
2022/07/31 04:16:50;;;;;;;11.30;5.72;;;;;;;20.50;100.00;101593.19;5107997;27;20476;-60
2022/07/31 04:19:17;;;;;;;12.43;7.35;;;;;;;20.47;100.00;101595.41;5091332;27;20052;-60
2022/07/31 04:21:43;;;;;;;10.95;7.85;;;;;;;20.48;100.00;101597.88;5099942;27;20475;-60
2022/07/31 04:24:12;;;;;;;10.57;7.68;;;;;;;20.51;100.00;101608.13;5109610;27;20053;-59
2022/07/31 04:26:38;;;;;;;13.40;7.93;;;;;;;20.51;100.00;101600.13;5101455;28;20050;-58
2022/07/31 04:29:05;;;;;;;11.60;7.50;;;;;;;20.50;100.00;101597.66;5101670;27;20383;-57
2022/07/31 04:31:31;;;;;;;8.95;7.50;;;;;;;20.42;100.00;101605.78;5104665;27;20055;-60
2022/07/31 04:33:58;;;;;;;11.95;8.57;;;;;;;20.39;100.00;101604.34;5097445;27;20051;-60
2022/07/31 04:36:24;;;;;;;12.45;6.30;;;;;;;20.43;100.00;101600.28;5085524;28;20718;-60
2022/07/31 04:38:57;;;;;;;16.40;8.00;;;;;;;20.43;100.00;101602.94;5099833;28;20512;-60
2022/07/31 04:41:23;;;;;;;12.35;7.78;;;;;;;20.41;100.00;101599.66;5094026;27;20508;-60
2022/07/31 04:43:50;;;;;;;12.35;7.78;;;;;;;20.34;100.00;101601.44;5108416;27;20048;-60
2022/07/31 04:46:16;;;;;;;10.23;7.75;;;;;;;20.37;100.00;101598.41;5119602;27;20063;-60
2022/07/31 04:48:43;;;;;;;10.20;7.03;;;;;;;20.38;100.00;101600.03;5090455;27;20063;-60
2022/07/31 04:51:21;;;;;;;10.35;7.32;;;;;;;20.40;100.00;101599.84;5109436;27;20071;-60
2022/07/31 04:53:49;;;;;;;12.80;7.53;;;;;;;20.43;100.00;101604.78;5100301;27;20058;-59
2022/07/31 04:56:32;;;;;;;11.05;7.07;;;;;;;20.44;100.00;101606.44;5114755;28;20074;-60
2022/07/31 04:59:00;;;;;;;11.20;6.78;;;;;;;20.43;100.00;101613.59;5093648;28;20055;-60
2022/07/31 05:01:26;;;;;;;12.20;7.05;;;;;;;20.44;100.00;101606.44;5106701;27;20520;-60
2022/07/31 05:03:53;;;;;;;13.05;6.93;;;;;;;20.32;100.00;101603.47;5092005;28;20435;-61
2022/07/31 05:06:19;;;;;;;12.95;7.55;;;;;;;20.34;100.00;101594.25;5109463;28;20047;-60
2022/07/31 05:08:46;;;;;;;9.43;6.63;;;;;;;20.37;100.00;101590.41;5099214;28;20122;-60
2022/07/31 05:11:21;;;;;;;11.50;6.85;;;;;;;20.40;100.00;101595.31;5101979;27;20465;-60
2022/07/31 05:13:54;;;;;;;10.95;6.88;;;;;;;20.44;100.00;101580.59;5098585;28;20330;-60
2022/07/31 05:16:22;;;;;;;11.82;6.85;;;;;;;20.49;100.00;101586.19;5084170;28;20051;-60
2022/07/31 05:18:48;;;;;;;8.93;6.50;;;;;;;20.48;100.00;101592.53;5105229;28;20133;-59
2022/07/31 05:21:15;;;;;;;16.50;7.68;;;;;;;20.50;100.00;101598.50;5090743;28;20048;-61
2022/07/31 05:23:44;;;;;;;11.98;7.40;;;;;;;20.50;100.00;101595.00;5109558;28;20047;-59
2022/07/31 05:26:11;;;;;;;12.07;7.50;;;;;;;20.49;100.00;101594.19;5097300;28;20051;-59
2022/07/31 05:28:38;;;;;;;13.70;7.57;;;;;;;20.51;100.00;101588.66;5093004;27;20056;-60
2022/07/31 05:31:06;;;;;;;13.33;8.03;;;;;;;20.46;100.00;101585.75;5112146;27;20057;-61
2022/07/31 05:33:32;;;;;;;15.05;8.38;;;;;;;20.50;100.00;101581.66;5099846;27;20058;-61
2022/07/31 05:36:00;;;;;;;12.05;9.57;;;;;;;20.51;100.00;101588.66;5110646;27;20051;-61
2022/07/31 05:38:27;;;;;;;12.32;9.52;;;;;;;20.49;100.00;101586.19;5099923;27;20074;-59
2022/07/31 05:40:54;;;;;;;9.55;7.85;;;;;;;20.58;100.00;101594.88;5095975;27;20054;-60
2022/07/31 05:43:20;;;;;;;11.32;9.15;;;;;;;20.56;100.00;101599.53;5100930;27;20396;-61
2022/07/31 05:45:47;;;;;;;16.17;9.60;;;;;;;20.64;100.00;101595.94;5095489;27;20055;-61
2022/07/31 05:48:14;;;;;;;14.50;9.75;;;;;;;20.68;100.00;101583.88;5103710;27;20059;-60
2022/07/31 05:50:49;;;;;;;17.67;10.53;;;;;;;20.61;100.00;101583.03;5094130;28;20051;-61
2022/07/31 05:53:16;;;;;;;13.43;9.55;;;;;;;20.60;100.00;101587.53;5098404;28;20074;-61
2022/07/31 05:55:47;;;;;;;17.58;9.90;;;;;;;20.52;100.00;101591.13;5093282;27;20058;-61
2022/07/31 05:58:15;;;;;;;21.00;10.43;;;;;;;20.50;100.00;101595.84;5109419;27;20051;-60
2022/07/31 06:00:46;;;;;;;19.27;10.25;;;;;;;20.50;100.00;101601.16;5109926;27;20059;-59
2022/07/31 06:03:12;;;;;;;14.73;10.27;;;;;;;20.44;100.00;101607.25;5102575;27;20121;-59
2022/07/31 06:05:39;;;;;;;15.80;10.88;;;;;;;20.42;100.00;101606.63;5105640;27;20047;-59
2022/07/31 06:08:08;;;;;;;13.10;9.50;;;;;;;20.46;100.00;101607.88;5102239;27;20500;-59
2022/07/31 06:10:36;;;;;;;18.42;10.75;;;;;;;20.49;100.00;101612.03;5108411;27;20047;-60
2022/07/31 06:13:04;;;;;;;14.75;10.23;;;;;;;20.54;100.00;101617.56;5105548;27;20039;-60
2022/07/31 06:15:30;;;;;;;14.88;10.98;;;;;;;20.45;100.00;101613.41;5106454;27;20121;-62
2022/07/31 06:18:02;;;;;;;17.80;11.50;;;;;;;20.22;100.00;101613.63;5107263;27;20388;-61
2022/07/31 06:20:29;;;;;;;17.13;11.73;;;;;;;20.17;100.00;101616.88;5109376;27;20063;-60
2022/07/31 06:22:55;;;;;;;17.27;12.00;;;;;;;20.23;100.00;101607.25;5107892;27;20301;-60
2022/07/31 06:25:22;;;;;;;17.42;11.10;;;;;;;20.23;100.00;101609.94;5104616;27;20089;-61
2022/07/31 06:27:48;;;;;;;16.40;12.15;;;;;;;20.14;100.00;101612.72;5107339;27;20379;-60
2022/07/31 06:30:25;;;;;;;19.17;12.25;;;;;;;20.15;100.00;101605.59;5098144;27;20130;-61
2022/07/31 06:32:51;;;;;;;15.13;11.27;;;;;;;20.17;100.00;101611.53;5113666;27;20640;-60
2022/07/31 06:35:18;;;;;;;17.42;11.68;;;;;;;20.17;100.00;101608.03;5099439;27;20085;-60
2022/07/31 06:37:44;;;;;;;15.60;11.68;;;;;;;20.22;100.00;101608.28;5096106;27;20400;-61
2022/07/31 06:40:11;;;;;;;19.40;13.25;;;;;;;20.25;100.00;101615.91;5120856;27;20509;-61
2022/07/31 06:42:38;;;;;;;15.73;12.37;;;;;;;20.22;100.00;101613.63;5113626;27;20712;-60
2022/07/31 06:45:05;;;;;;;18.00;13.63;;;;;;;20.21;100.00;101610.16;5111992;27;20280;-59
2022/07/31 06:47:31;;;;;;;15.05;12.00;;;;;;;20.19;100.00;101606.00;5097361;28;20471;-59
2022/07/31 06:49:58;;;;;;;19.27;13.70;;;;;;;20.13;100.00;101604.91;5093565;27;20049;-59
2022/07/31 06:52:24;;;;;;;18.05;14.05;;;;;;;20.14;100.00;101594.09;5107329;27;20559;-60
2022/07/31 06:54:51;;;;;;;15.15;13.13;;;;;;;20.13;100.00;101589.78;5106661;27;20300;-60
2022/07/31 06:57:17;;;;;;;17.50;14.18;;;;;;;20.13;100.00;101588.94;5106101;27;20048;-59
2022/07/31 06:59:44;;;;;;;16.05;13.23;;;;;;;20.23;100.00;101586.81;5095851;27;20486;-60
2022/07/31 07:02:10;;;;;;;19.55;15.27;;;;;;;20.22;100.00;101595.78;5106562;27;20047;-61
2022/07/31 07:04:37;;;;;;;19.35;15.15;;;;;;;20.24;100.00;101600.94;5094026;27;20268;-59
2022/07/31 07:07:23;;;;;;;17.52;13.27;;;;;;;20.21;100.00;101595.97;5112092;27;20080;-59
2022/07/31 07:09:56;;;;;;;17.25;13.27;;;;;;;20.13;100.00;101596.94;5107779;27;20411;-60
2022/07/31 07:12:23;;;;;;;20.23;14.35;;;;;;;20.10;100.00;101592.00;5098083;27;20043;-61
2022/07/31 07:14:52;;;;;;;17.70;13.30;;;;;;;20.14;100.00;101593.25;5113102;27;20794;-59
2022/07/31 07:17:18;;;;;;;16.55;13.73;;;;;;;20.17;100.00;101594.72;5087950;27;20052;-59
2022/07/31 07:19:44;;;;;;;18.83;13.55;;;;;;;20.18;100.00;101591.88;5109244;27;20047;-60
2022/07/31 07:22:19;;;;;;;17.05;12.20;;;;;;;20.24;100.00;101601.75;5095091;27;20144;-60
2022/07/31 07:24:57;;;;;;;18.83;12.38;;;;;;;20.26;100.00;101601.56;5113045;27;20051;-61
2022/07/31 07:27:24;;;;;;;21.83;12.15;;;;;;;20.31;100.00;101586.66;5098266;28;20051;-60
2022/07/31 07:29:50;;;;;;;16.85;12.35;;;;;;;20.35;100.00;101597.75;5092406;28;20048;-61
2022/07/31 07:32:17;;;;;;;14.05;11.50;;;;;;;20.24;100.00;101583.09;5103183;27;20335;-61
2022/07/31 07:34:43;;;;;;;15.90;11.75;;;;;;;20.35;100.00;101584.44;5090566;28;20527;-60
2022/07/31 07:37:10;;;;;;;17.80;11.40;;;;;;;20.30;100.00;101576.19;5112812;27;20050;-60
2022/07/31 07:39:36;;;;;;;15.13;11.00;;;;;;;20.25;100.00;101582.09;5104921;27;20051;-61
2022/07/31 07:42:03;;;;;;;16.85;11.77;;;;;;;20.33;100.00;101597.13;5113023;27;20546;-60
2022/07/31 07:44:29;;;;;;;16.17;10.80;;;;;;;20.33;100.00;101587.28;5105513;27;20057;-60
2022/07/31 07:46:56;;;;;;;19.25;11.52;;;;;;;20.38;100.00;101588.56;5092116;27;20059;-60
2022/07/31 07:49:22;;;;;;;14.27;10.50;;;;;;;20.35;100.00;101585.25;5105147;27;20090;-60
2022/07/31 07:51:49;;;;;;;14.32;10.55;;;;;;;20.30;100.00;101586.84;5092022;28;20583;-60
2022/07/31 07:54:25;;;;;;;13.18;8.95;;;;;;;20.32;100.00;101585.63;5100604;28;20513;-60
2022/07/31 07:56:53;;;;;;;13.80;10.65;;;;;;;20.37;100.00;101585.06;5110987;27;20410;-57
2022/07/31 07:59:20;;;;;;;16.25;11.00;;;;;;;20.48;100.00;101576.56;5102254;27;20977;-61
2022/07/31 08:01:46;;;;;;;14.80;9.80;;;;;;;20.62;100.00;101580.16;5109674;27;20069;-60
2022/07/31 08:04:13;;;;;;;16.63;10.68;;;;;;;20.54;100.00;101583.78;5093577;27;20418;-60
2022/07/31 08:06:39;;;;;;;14.23;10.48;;;;;;;20.49;100.00;101580.84;5103321;27;20054;-60
2022/07/31 08:09:05;;;;;;;15.40;9.43;;;;;;;20.56;100.00;101580.88;5086757;27;20176;-58
2022/07/31 08:11:32;;;;;;;14.40;10.80;;;;;;;20.49;100.00;101586.19;5103700;27;20053;-59
2022/07/31 08:13:58;;;;;;;12.60;10.27;;;;;;;20.61;100.00;101585.69;5094743;27;20317;-60
2022/07/31 08:16:25;;;;;;;14.52;10.48;;;;;;;20.51;100.00;101586.81;5094115;27;20533;-59
2022/07/31 08:18:53;;;;;;;19.63;11.48;;;;;;;20.57;100.00;101581.75;5101207;27;20455;-59
2022/07/31 08:21:19;;;;;;;19.38;11.77;;;;;;;20.61;100.00;101583.03;5094904;27;20051;-60
2022/07/31 08:23:46;;;;;;;19.25;11.07;;;;;;;20.60;100.00;101581.38;5096880;27;20055;-60
2022/07/31 08:26:12;;;;;;;17.80;11.55;;;;;;;20.69;100.00;101580.22;5094573;27;20459;-59
2022/07/31 08:28:40;;;;;;;17.75;11.15;;;;;;;20.82;100.00;101576.81;5099994;27;20078;-59
2022/07/31 08:31:15;;;;;;;14.63;10.10;;;;;;;20.83;100.00;101581.94;5111016;27;20050;-59
2022/07/31 08:33:42;;;;;;;16.70;10.30;;;;;;;20.98;100.00;101584.50;5090617;27;20054;-60
2022/07/31 08:36:08;;;;;;;17.17;10.07;;;;;;;21.14;100.00;101570.00;5104131;27;20279;-59
2022/07/31 08:38:35;;;;;;;16.85;9.90;;;;;;;21.12;100.00;101572.84;5093440;27;20076;-60
2022/07/31 08:41:02;;;;;;;17.20;10.20;;;;;;;21.15;100.00;101566.31;5099514;27;20283;-60
2022/07/31 08:43:29;;;;;;;14.38;10.27;;;;;;;21.20;100.00;101571.06;5103617;27;20432;-60
2022/07/31 08:46:16;;;;;;;13.93;9.52;;;;;;;21.23;100.00;101573.31;5119912;27;20529;-59
2022/07/31 08:48:44;;;;;;;13.82;9.63;;;;;;;21.40;100.00;101568.44;5109771;27;20698;-59
2022/07/31 08:51:12;;;;;;;13.63;9.13;;;;;;;21.45;100.00;101571.38;5100535;27;20051;-58
2022/07/31 08:53:41;;;;;;;16.65;9.77;;;;;;;21.62;100.00;101567.34;5101907;27;20134;-58
2022/07/31 08:56:09;;;;;;;13.88;9.40;;;;;;;21.75;100.00;101569.19;5107640;27;20047;-59
2022/07/31 08:58:36;;;;;;;12.32;9.10;;;;;;;21.84;100.00;101567.19;5106099;28;20066;-58
2022/07/31 09:01:06;;;;;;;12.70;9.00;;;;;;;21.85;100.00;101566.13;5090764;28;20353;-59
2022/07/31 09:03:34;;;;;;;;;;;;;;;22.06;100.00;101568.63;5114322;27;20047;-58
2022/07/31 09:06:01;;;;;;;12.30;8.32;;;;;;;22.15;100.00;101561.25;5120792;27;19927;-58
2022/07/31 09:08:31;;;;;;;15.23;9.07;;;;;;;22.41;100.00;101560.44;5093421;27;20424;-59
2022/07/31 09:11:08;;;;;;;13.20;9.60;;;;;;;22.35;100.00;101563.94;5107051;27;20054;-61
2022/07/31 09:13:35;;;;;;;12.90;9.48;;;;;;;22.41;100.00;101563.09;5104095;27;20678;-59
2022/07/31 09:16:03;;;;;;;16.42;8.98;;;;;;;22.48;100.00;101555.06;5111195;27;20051;-58
2022/07/31 09:18:29;;;;;;;15.35;9.05;;;;;;;22.48;100.00;101558.59;5109123;27;20048;-60
2022/07/31 09:21:04;;;;;;;15.85;9.30;;;;;;;22.54;100.00;101558.78;5098932;28;20427;-59
2022/07/31 09:23:31;;;;;;;12.25;8.65;;;;;;;22.60;100.00;101553.44;5102589;27;20148;-60
2022/07/31 09:26:00;;;;;;;14.35;8.95;;;;;;;22.59;100.00;101557.13;5096908;27;20048;-58
2022/07/31 09:28:38;;;;;;;16.02;9.00;;;;;;;22.69;100.00;101565.53;5113447;27;20051;-58
2022/07/31 09:31:07;;;;;;;11.70;8.13;;;;;;;22.76;100.00;101560.19;5112879;27;20081;-59
2022/07/31 09:33:37;;;;;;;12.85;8.18;;;;;;;22.93;100.00;101557.84;5110473;27;20062;-60
2022/07/31 09:36:10;;;;;;;11.32;8.07;;;;;;;22.91;100.00;101557.25;5098619;27;20051;-59
2022/07/31 09:38:39;;;;;;;14.98;9.80;;;;;;;22.93;100.00;101555.19;5108678;27;20427;-60
2022/07/31 09:41:11;;;;;;;11.95;7.78;;;;;;;23.00;100.00;101561.34;5102769;27;20163;-60
2022/07/31 09:44:01;;;;;;;12.20;8.32;;;;;;;22.97;100.00;101563.59;5116155;27;20489;-59
2022/07/31 09:46:47;;;;;;;16.88;9.32;;;;;;;23.03;100.00;101558.28;5107466;27;20052;-59
2022/07/31 09:49:13;;;;;;;14.98;9.52;;;;;;;22.92;100.00;101563.44;5106799;27;20047;-59
2022/07/31 09:51:45;;;;;;;16.58;10.15;;;;;;;22.92;100.00;101563.44;5117937;27;20058;-58
2022/07/31 09:54:25;;;;;;;13.68;9.90;;;;;;;22.87;100.00;101570.25;5096508;27;20063;-58
2022/07/31 09:56:52;;;;;;;18.65;10.52;;;;;;;22.81;100.00;101572.91;5102656;27;20371;-60
2022/07/31 09:59:18;;;;;;;15.13;10.23;;;;;;;22.79;100.00;101577.66;5108097;27;20542;-60
2022/07/31 10:01:47;;;;;;;15.70;11.00;;;;;;;22.61;100.00;101570.28;5102295;27;20057;-57
2022/07/31 10:04:16;;;;;;;16.35;11.30;;;;;;;22.68;100.00;101563.09;5105609;27;20050;-59
2022/07/31 10:06:46;;;;;;;16.50;10.52;;;;;;;22.58;100.00;101578.72;5103716;27;20069;-57
2022/07/31 10:09:14;;;;;;;16.30;11.57;;;;;;;22.72;100.00;101561.63;5120929;27;20059;-59
2022/07/31 10:11:41;;;;;;;19.13;12.25;;;;;;;22.66;100.00;101571.31;5109925;27;20043;-60
2022/07/31 10:14:14;;;;;;;16.80;12.23;;;;;;;22.66;100.00;101570.50;5102415;28;20058;-59
2022/07/31 10:16:41;;;;;;;19.17;12.48;;;;;;;22.63;100.00;101569.03;5093421;27;20296;-59
2022/07/31 10:19:11;;;;;;;19.20;13.63;;;;;;;22.61;100.00;101559.59;5095995;27;20493;-57
2022/07/31 10:21:42;;;;;;;16.20;12.23;;;;;;;22.57;100.00;101561.03;5115743;27;20530;-60
2022/07/31 10:24:10;;;;;;;18.23;13.13;;;;;;;22.52;100.00;101569.66;5104067;27;20054;-59
2022/07/31 10:26:37;;;;;;;17.45;13.38;;;;;;;22.51;100.00;101562.69;5108517;27;20510;-60
2022/07/31 10:29:25;;;;;;;17.13;13.50;;;;;;;22.38;100.00;101549.34;5104560;27;20058;-58
2022/07/31 10:31:52;;;;;;;17.63;13.23;;;;;;;22.41;100.00;101544.41;5099621;27;20053;-59
2022/07/31 10:34:20;;;;;;;19.98;13.95;;;;;;;22.43;100.00;101539.66;5101493;27;20046;-59
2022/07/31 10:36:50;;;;;;;;;;;;;;;22.59;100.00;101554.44;5119335;27;20062;-59
2022/07/31 10:39:23;;;;;;;18.13;13.73;;;;;;;22.36;100.00;101548.72;5102615;27;20264;-60
2022/07/31 10:42:32;;;;;;;17.67;14.05;;;;;;;22.32;100.00;101550.97;5098474;27;20676;-57
2022/07/31 10:45:17;;;;;;;15.38;13.30;;;;;;;22.35;100.00;101541.75;5109340;27;20047;-60
2022/07/31 10:47:54;;;;;;;16.58;14.43;;;;;;;22.48;100.00;101545.22;5095648;27;20044;-59
2022/07/31 10:50:22;;;;;;;16.25;14.20;;;;;;;22.47;100.00;101540.88;5103518;27;20047;-60
2022/07/31 10:52:49;;;;;;;18.90;15.40;;;;;;;22.48;100.00;101533.69;5102130;27;20047;-57
2022/07/31 10:55:24;;;;;;;17.48;13.32;;;;;;;22.71;100.00;101530.56;5114268;27;20062;-58
2022/07/31 10:57:50;;;;;;;17.83;14.77;;;;;;;22.90;100.00;101524.31;5091813;27;20058;-58
2022/07/31 11:00:25;;;;;;;21.10;16.42;;;;;;;23.03;100.00;101526.19;5098301;27;20078;-59
2022/07/31 11:02:55;;;;;;;19.05;14.18;;;;;;;23.01;100.00;101532.72;5100822;27;20086;-59
2022/07/31 11:05:23;;;;;;;15.82;13.57;;;;;;;23.02;100.00;101526.34;5099093;27;20708;-61
2022/07/31 11:08:00;;;;;;;18.67;14.30;;;;;;;22.98;100.00;101523.28;5105150;27;20055;-60
2022/07/31 11:10:28;;;;;;;22.27;15.30;;;;;;;22.99;100.00;101532.13;5102788;27;20043;-60
2022/07/31 11:13:03;;;;;;;17.02;14.80;;;;;;;23.02;100.00;101534.38;5099772;27;20447;-60
2022/07/31 11:15:30;;;;;;;16.45;14.07;;;;;;;22.87;100.00;101539.97;5096013;27;20422;-62
2022/07/31 11:17:56;;;;;;;17.58;13.35;;;;;;;22.85;100.00;101534.81;5099991;28;20497;-61
2022/07/31 11:20:47;;;;;;;17.77;14.15;;;;;;;22.77;100.00;101534.25;5097034;27;20059;-61